Time;durP1;ratioP1;P1;durP2;ratioP2;P2;SDS_P1;SDS_P2;PMS_P1;PMS_P2;Temp;Humidity;BMP_temperature;BMP_pressure;BME280_temperature;BME280_humidity;BME280_pressure;Samples;Min_cycle;Max_cycle;Signal;HPM_P1;HPM_P2
2021/01/09 00:00:47;;;;;;;67.82;24.10;;;;;;;2.32;95.57;100805.30;1616655;88;20985;-90
2021/01/09 00:03:13;;;;;;;64.97;23.70;;;;;;;2.33;95.90;100797.66;1616727;88;21058;-91
2021/01/09 00:05:39;;;;;;;71.95;24.25;;;;;;;2.14;97.05;100789.91;1616614;88;22060;-91
2021/01/09 00:08:05;;;;;;;66.22;23.20;;;;;;;2.10;97.38;100780.19;1616418;88;21036;-91
2021/01/09 00:10:32;;;;;;;71.65;25.12;;;;;;;1.96;97.95;100792.60;1616486;88;21178;-92
2021/01/09 00:12:58;;;;;;;64.72;23.45;;;;;;;2.09;97.48;100801.64;1595181;88;21263;-91
2021/01/09 00:15:26;;;;;;;68.40;25.35;;;;;;;2.15;97.09;100818.97;1616674;88;21107;-91
2021/01/09 00:17:51;;;;;;;70.15;25.62;;;;;;;2.24;96.62;100830.25;1601653;87;21224;-91
2021/01/09 00:20:18;;;;;;;72.60;25.85;;;;;;;2.32;96.46;100834.55;1634597;87;21668;-91
2021/01/09 00:22:44;;;;;;;73.02;25.57;;;;;;;2.35;96.28;100842.95;1634882;87;21644;-90
2021/01/09 00:25:16;;;;;;;78.47;26.15;;;;;;;2.42;96.07;100827.84;1634679;87;21231;-90
2021/01/09 00:27:42;;;;;;;64.37;23.77;;;;;;;2.41;95.99;100825.38;1635209;87;21041;-91
2021/01/09 00:30:09;;;;;;;63.20;22.85;;;;;;;2.28;96.04;100824.31;1637246;87;21250;-91
2021/01/09 00:32:35;;;;;;;64.10;23.62;;;;;;;2.26;96.50;100818.41;1637326;87;21635;-91
2021/01/09 00:35:01;;;;;;;72.05;23.75;;;;;;;2.12;97.03;100807.41;1637302;87;21005;-91
2021/01/09 00:37:29;;;;;;;65.37;24.32;;;;;;;2.18;97.11;100811.92;1637168;87;21663;-91
2021/01/09 00:39:55;;;;;;;69.30;23.10;;;;;;;2.19;96.95;100812.73;1637235;87;21140;-91
2021/01/09 00:42:21;;;;;;;63.85;23.92;;;;;;;2.12;97.23;100808.73;1637413;87;22009;-90
2021/01/09 00:44:47;;;;;;;62.67;23.38;;;;;;;2.16;97.04;100799.84;1637432;87;20950;-91
2021/01/09 00:47:13;;;;;;;62.25;22.80;;;;;;;2.09;97.46;100791.86;1637372;87;21176;-90
2021/01/09 00:49:39;;;;;;;62.43;23.50;;;;;;;2.07;97.48;100788.56;1637401;87;20973;-91
2021/01/09 00:52:05;;;;;;;65.40;23.45;;;;;;;2.11;97.36;100788.98;1637320;87;21482;-91
2021/01/09 00:54:31;;;;;;;63.50;23.73;;;;;;;2.15;97.09;100793.71;1637191;87;21294;-91
2021/01/09 00:56:57;;;;;;;60.10;22.35;;;;;;;2.19;96.76;100790.95;1637307;87;21208;-90
2021/01/09 00:59:24;;;;;;;62.38;23.18;;;;;;;2.21;96.88;100790.25;1637266;87;21284;-91
2021/01/09 01:01:51;;;;;;;62.60;23.22;;;;;;;2.17;97.14;100776.22;1637179;87;21199;-91
2021/01/09 01:04:17;;;;;;;64.20;23.60;;;;;;;2.17;97.16;100773.56;1637330;87;21628;-89
2021/01/09 01:06:43;;;;;;;63.10;23.12;;;;;;;2.14;97.13;100764.66;1637142;87;21624;-90
2021/01/09 01:09:12;;;;;;;57.15;22.07;;;;;;;2.12;97.36;100762.70;1636997;87;21233;-91
2021/01/09 01:11:40;;;;;;;60.90;22.45;;;;;;;2.07;97.46;100763.83;1637371;87;21633;-91
2021/01/09 01:14:07;;;;;;;60.65;22.35;;;;;;;2.07;97.37;100755.34;1645433;85;21198;-91
2021/01/09 01:16:33;;;;;;;60.35;22.02;;;;;;;1.96;97.93;100750.08;1646512;86;21118;-91
2021/01/09 01:18:59;;;;;;;54.93;21.50;;;;;;;1.97;98.15;100742.92;1618689;88;21219;-91
2021/01/09 01:21:25;;;;;;;52.33;20.70;;;;;;;1.90;98.08;100740.25;1669668;85;21747;-92
2021/01/09 01:23:51;;;;;;;62.05;21.73;;;;;;;1.87;98.20;100731.34;1670031;85;21087;-91
2021/01/09 01:26:17;;;;;;;62.13;22.42;;;;;;;1.83;98.77;100726.65;1665458;85;20937;-92
2021/01/09 01:28:43;;;;;;;81.75;29.20;;;;;;;1.94;98.08;100714.09;1667300;85;21732;-91
2021/01/09 01:31:10;;;;;;;79.27;28.87;;;;;;;2.00;97.12;100696.02;1664999;86;21256;-91
2021/01/09 01:33:40;;;;;;;72.37;26.95;;;;;;;1.86;97.81;100695.18;1664833;86;21176;-91
2021/01/09 01:36:09;;;;;;;71.45;25.95;;;;;;;1.76;98.22;100696.05;1664682;86;21183;-92
2021/01/09 01:38:35;;;;;;;69.22;24.27;;;;;;;1.80;98.11;100698.64;1664900;86;21319;-91
2021/01/09 01:41:04;;;;;;;68.40;22.60;;;;;;;1.66;99.43;100696.95;1664831;86;21660;-91
2021/01/09 01:43:30;;;;;;;63.58;24.10;;;;;;;1.66;99.22;100687.14;1658690;86;21434;-91
2021/01/09 01:46:02;;;;;;;62.05;22.55;;;;;;;1.63;99.79;100682.73;1664823;86;21246;-91
2021/01/09 01:48:28;;;;;;;65.15;23.98;;;;;;;1.53;99.50;100677.77;1664844;86;21262;-91
2021/01/09 01:50:55;;;;;;;70.03;25.20;;;;;;;1.73;98.99;100683.98;1664856;86;21171;-92
2021/01/09 01:53:21;;;;;;;64.42;24.00;;;;;;;1.78;98.60;100690.04;1664814;86;21215;-91
2021/01/09 01:55:49;;;;;;;64.62;23.15;;;;;;;1.81;98.34;100701.59;1665085;86;21195;-91
2021/01/09 01:58:15;;;;;;;59.77;22.82;;;;;;;1.85;98.06;100705.99;1664982;86;21625;-92
2021/01/09 02:00:48;;;;;;;65.70;24.18;;;;;;;1.88;97.75;100702.94;1664858;86;20930;-91
2021/01/09 02:03:19;;;;;;;68.28;24.30;;;;;;;1.92;97.61;100707.66;1664855;86;21270;-91
2021/01/09 02:05:54;;;;;;;63.45;24.00;;;;;;;1.96;97.53;100698.26;1664920;86;21168;-90
2021/01/09 02:08:24;;;;;;;68.25;25.65;;;;;;;1.91;97.63;100688.77;1661350;86;21298;-93
2021/01/09 02:10:55;;;;;;;63.83;23.95;;;;;;;1.91;97.54;100686.59;1664664;86;21179;-93
2021/01/09 02:13:36;;;;;;;59.05;22.27;;;;;;;1.96;97.40;100695.60;1661381;86;21755;-93
2021/01/09 02:16:03;;;;;;;67.95;22.10;;;;;;;1.98;97.31;100701.55;1600588;89;21322;-92
2021/01/09 02:18:33;;;;;;;58.20;22.80;;;;;;;2.01;97.21;100691.84;1605137;89;21234;-91
2021/01/09 02:21:05;;;;;;;58.20;21.85;;;;;;;2.10;97.34;100689.00;1604859;89;21498;-91
2021/01/09 02:23:33;;;;;;;61.80;22.55;;;;;;;2.15;97.21;100682.06;1578698;89;49587;-92
2021/01/09 02:26:00;;;;;;;64.70;22.87;;;;;;;2.21;96.94;100684.42;1604926;89;21665;-91
2021/01/09 02:28:26;;;;;;;66.00;23.35;;;;;;;2.27;96.83;100693.73;1602749;88;21832;-91
2021/01/09 02:30:52;;;;;;;66.67;23.35;;;;;;;2.33;96.70;100692.62;1597696;89;21696;-92
2021/01/09 02:33:20;;;;;;;58.05;21.97;;;;;;;2.36;96.45;100694.87;1597924;89;21224;-91
2021/01/09 02:35:48;;;;;;;67.47;23.27;;;;;;;2.40;96.35;100705.41;1597850;89;21700;-91
2021/01/09 02:38:15;;;;;;;66.02;23.73;;;;;;;2.35;96.07;100698.02;1597989;89;21195;-91
2021/01/09 02:40:42;;;;;;;68.67;23.02;;;;;;;2.32;95.97;100690.97;1597636;89;21191;-92
2021/01/09 02:43:15;;;;;;;65.67;23.15;;;;;;;2.35;95.97;100693.22;1597877;89;21288;-91
2021/01/09 02:45:41;;;;;;;64.55;22.42;;;;;;;2.32;95.85;100688.30;1598062;89;21254;-92
2021/01/09 02:48:08;;;;;;;64.67;23.92;;;;;;;2.31;95.83;100692.00;1597669;89;21621;-90
2021/01/09 02:50:34;;;;;;;69.95;24.52;;;;;;;2.34;96.03;100701.71;1597718;89;21199;-90
2021/01/09 02:53:00;;;;;;;70.92;24.52;;;;;;;2.39;96.03;100698.45;1597735;89;21561;-91
2021/01/09 02:55:26;;;;;;;66.45;24.57;;;;;;;2.43;95.90;100691.70;1597699;89;21099;-91
2021/01/09 02:57:52;;;;;;;68.65;24.57;;;;;;;2.47;95.91;100693.76;1597864;89;21412;-91
2021/01/09 03:00:19;;;;;;;69.37;25.12;;;;;;;2.48;95.58;100700.70;1597864;89;21072;-91
2021/01/09 03:02:45;;;;;;;70.30;25.17;;;;;;;2.54;95.70;100699.08;1577166;89;21207;-91
2021/01/09 03:05:12;;;;;;;72.42;24.98;;;;;;;2.59;95.71;100697.95;1599520;87;20962;-91
2021/01/09 03:07:37;;;;;;;66.05;23.32;;;;;;;2.64;95.45;100703.45;1641150;87;21596;-91
2021/01/09 03:10:05;;;;;;;64.37;24.35;;;;;;;2.67;95.21;100703.56;1641448;87;21216;-91
2021/01/09 03:12:31;;;;;;;73.07;25.45;;;;;;;2.63;95.10;100692.52;1641439;86;21482;-91
2021/01/09 03:14:56;;;;;;;67.87;23.83;;;;;;;2.66;94.44;100707.27;1641320;86;21143;-91
2021/01/09 03:17:24;;;;;;;67.87;23.07;;;;;;;2.66;94.52;100705.93;1641590;86;20962;-92
2021/01/09 03:19:50;;;;;;;64.70;23.75;;;;;;;2.64;94.57;100707.97;1641317;87;21187;-91
2021/01/09 03:22:16;;;;;;;68.60;24.25;;;;;;;2.58;94.02;100706.94;1641219;87;21969;-91
2021/01/09 03:24:42;;;;;;;67.37;23.98;;;;;;;2.58;94.27;100704.80;1641244;87;20950;-91
2021/01/09 03:27:07;;;;;;;59.80;22.50;;;;;;;2.59;94.25;100707.75;1641155;87;20985;-90
2021/01/09 03:29:33;;;;;;;58.80;23.30;;;;;;;2.59;94.34;100714.41;1650561;85;21626;-90
2021/01/09 03:31:59;;;;;;;66.70;23.73;;;;;;;2.63;94.48;100702.35;1656614;86;21108;-90
2021/01/09 03:34:25;;;;;;;62.62;22.13;;;;;;;2.64;94.25;100707.45;1656490;85;21105;-90
2021/01/09 03:36:51;;;;;;;60.17;22.70;;;;;;;2.64;94.03;100714.10;1656304;85;20952;-90
2021/01/09 03:39:17;;;;;;;67.47;23.35;;;;;;;2.59;93.63;100716.58;1656377;85;21714;-90
2021/01/09 03:41:42;;;;;;;64.80;21.97;;;;;;;2.61;93.86;100710.52;1656311;85;21027;-89
2021/01/09 03:44:08;;;;;;;57.83;21.73;;;;;;;2.58;93.53;100710.11;1656481;85;20983;-89
2021/01/09 03:46:34;;;;;;;64.60;23.55;;;;;;;2.60;93.80;100712.88;1656417;85;21582;-90
2021/01/09 03:49:00;;;;;;;64.47;24.12;;;;;;;2.58;93.28;100704.28;1656356;85;20991;-89
2021/01/09 03:51:26;;;;;;;70.32;23.02;;;;;;;2.56;93.37;100701.52;1656440;85;20999;-89
2021/01/09 03:53:52;;;;;;;60.08;21.57;;;;;;;2.53;93.15;100693.94;1656320;85;21204;-88
2021/01/09 03:56:20;;;;;;;61.42;22.50;;;;;;;2.46;93.24;100691.29;1631902;86;20980;-88
2021/01/09 03:58:45;;;;;;;62.05;21.62;;;;;;;2.44;93.26;100681.36;1626541;87;21943;-88
2021/01/09 04:01:11;;;;;;;64.10;22.32;;;;;;;2.30;93.21;100674.41;1610844;87;20972;-88
2021/01/09 04:03:37;;;;;;;67.97;23.02;;;;;;;2.25;93.28;100681.66;1584462;89;21663;-88
2021/01/09 04:06:03;;;;;;;62.30;22.52;;;;;;;2.20;93.64;100683.58;1607835;89;21162;-88
2021/01/09 04:08:29;;;;;;;60.92;22.10;;;;;;;2.11;93.91;100685.31;1640407;87;21151;-88
2021/01/09 04:10:55;;;;;;;67.82;23.77;;;;;;;2.17;94.14;100692.48;1640323;86;21453;-88
2021/01/09 04:13:21;;;;;;;63.80;23.22;;;;;;;2.17;94.09;100685.31;1640271;86;21153;-87
2021/01/09 04:15:47;;;;;;;66.42;23.95;;;;;;;2.22;93.95;100683.39;1640411;86;21596;-88
2021/01/09 04:18:13;;;;;;;61.37;23.12;;;;;;;2.20;93.86;100684.91;1640316;87;20972;-87
2021/01/09 04:20:38;;;;;;;66.65;23.67;;;;;;;2.19;93.59;100698.42;1640217;86;21078;-88
2021/01/09 04:23:04;;;;;;;64.97;21.75;;;;;;;2.13;93.54;100685.42;1640394;86;22055;-88
2021/01/09 04:25:33;;;;;;;61.70;20.02;;;;;;;2.14;93.78;100688.90;1640320;86;21045;-87
2021/01/09 04:27:58;;;;;;;62.83;21.25;;;;;;;2.12;93.62;100709.05;1640258;86;21632;-88
2021/01/09 04:30:24;;;;;;;58.65;21.12;;;;;;;2.17;93.94;100706.58;1616557;87;20984;-88
2021/01/09 04:32:50;;;;;;;62.25;21.95;;;;;;;2.19;93.93;100693.11;1612818;89;21206;-87
2021/01/09 04:35:16;;;;;;;57.78;19.77;;;;;;;2.18;93.60;100686.97;1612564;89;21646;-88
2021/01/09 04:37:41;;;;;;;56.65;20.45;;;;;;;2.05;93.67;100686.94;1612604;89;21029;-88
2021/01/09 04:40:08;;;;;;;51.37;18.77;;;;;;;2.02;93.62;100699.30;1612549;89;20984;-87
2021/01/09 04:42:35;;;;;;;51.23;19.07;;;;;;;1.98;93.90;100698.89;1612437;89;21484;-88
2021/01/09 04:45:03;;;;;;;50.38;18.55;;;;;;;2.02;94.10;100698.78;1612615;89;21666;-88
2021/01/09 04:47:33;;;;;;;48.50;18.15;;;;;;;2.02;93.92;100700.63;1612653;89;21373;-88
2021/01/09 04:50:00;;;;;;;53.23;19.15;;;;;;;1.96;93.88;100700.92;1591241;89;21229;-87
2021/01/09 04:52:26;;;;;;;51.60;17.62;;;;;;;1.93;94.13;100710.62;1612573;89;21182;-88
2021/01/09 04:54:55;;;;;;;46.20;18.10;;;;;;;1.98;94.31;100722.80;1619151;87;21204;-88
2021/01/09 04:57:21;;;;;;;50.52;18.30;;;;;;;2.05;94.33;100713.00;1646604;87;21387;-88
2021/01/09 04:59:47;;;;;;;47.70;18.27;;;;;;;2.04;94.22;100703.91;1646612;87;21296;-87
2021/01/09 05:02:15;;;;;;;47.60;17.50;;;;;;;2.03;94.21;100703.62;1646465;87;21211;-87
2021/01/09 05:04:45;;;;;;;46.80;17.82;;;;;;;1.99;94.29;100703.17;1646588;87;21605;-87
2021/01/09 05:07:11;;;;;;;43.68;16.90;;;;;;;1.92;94.40;100695.70;1646539;87;21206;-88
2021/01/09 05:09:37;;;;;;;49.33;17.98;;;;;;;1.85;94.46;100695.36;1646685;87;21236;-87
2021/01/09 05:12:04;;;;;;;47.13;17.50;;;;;;;1.85;94.60;100707.32;1646716;87;21400;-87
2021/01/09 05:14:30;;;;;;;43.33;16.57;;;;;;;1.90;94.51;100709.69;1618249;87;21190;-87
2021/01/09 05:17:00;;;;;;;46.90;17.62;;;;;;;1.81;94.93;100711.70;1646466;86;21177;-88
2021/01/09 05:19:30;;;;;;;48.13;17.87;;;;;;;1.77;94.96;100708.34;1646530;87;21178;-88
2021/01/09 05:22:02;;;;;;;49.13;17.77;;;;;;;1.81;94.86;100711.70;1646361;87;21159;-87
2021/01/09 05:24:28;;;;;;;43.63;17.12;;;;;;;1.72;95.40;100704.13;1646625;87;21453;-89
2021/01/09 05:26:54;;;;;;;44.80;16.75;;;;;;;1.63;95.93;100714.61;1646571;87;21049;-89
2021/01/09 05:29:21;;;;;;;42.38;16.20;;;;;;;1.81;95.36;100732.15;1629648;85;21199;-88
2021/01/09 05:31:48;;;;;;;48.20;17.25;;;;;;;1.85;95.26;100724.59;1674734;85;21163;-87
2021/01/09 05:34:14;;;;;;;44.75;17.62;;;;;;;1.74;95.42;100712.72;1674795;85;21146;-88
2021/01/09 05:36:42;;;;;;;43.08;17.07;;;;;;;1.76;95.46;100716.78;1674750;85;21605;-88
2021/01/09 05:39:08;;;;;;;42.45;16.40;;;;;;;1.69;95.92;100716.47;1674816;85;21617;-88
2021/01/09 05:41:34;;;;;;;43.13;16.60;;;;;;;1.58;96.25;100710.69;1674596;85;21131;-87
2021/01/09 05:44:09;;;;;;;42.13;16.12;;;;;;;1.51;96.75;100720.48;1651482;85;21155;-86
2021/01/09 05:46:40;;;;;;;39.13;15.68;;;;;;;1.59;96.46;100718.17;1674642;85;21199;-88
2021/01/09 05:49:09;;;;;;;42.13;17.07;;;;;;;1.50;96.92;100720.66;1674818;85;21936;-87
2021/01/09 05:51:40;;;;;;;44.67;17.12;;;;;;;1.63;96.63;100719.41;1674584;85;21107;-87
2021/01/09 05:54:06;;;;;;;38.10;15.85;;;;;;;1.61;96.58;100718.77;1674735;85;21213;-87
2021/01/09 05:56:39;;;;;;;44.45;17.25;;;;;;;1.63;96.82;100716.75;1674543;85;21206;-87
2021/01/09 05:59:05;;;;;;;48.25;17.27;;;;;;;1.53;97.13;100725.09;1671630;85;21616;-87
2021/01/09 06:01:35;;;;;;;46.75;17.35;;;;;;;1.59;97.04;100734.11;1674764;85;21249;-87
2021/01/09 06:04:05;;;;;;;45.67;16.85;;;;;;;1.69;96.65;100746.50;1674775;85;21175;-88
2021/01/09 06:07:02;;;;;;;46.92;17.67;;;;;;;1.77;96.40;100750.33;1674762;85;21616;-87
2021/01/09 06:09:33;;;;;;;39.92;15.78;;;;;;;1.82;96.40;100756.36;1670380;85;21119;-88
2021/01/09 06:12:04;;;;;;;42.23;16.17;;;;;;;1.84;96.25;100757.50;1674608;85;21179;-88
2021/01/09 06:14:36;;;;;;;42.40;16.40;;;;;;;1.84;96.19;100750.34;1670321;85;21261;-90
2021/01/09 06:17:04;;;;;;;42.65;16.62;;;;;;;1.89;95.93;100766.52;1674515;85;21202;-88
2021/01/09 06:19:31;;;;;;;38.80;15.78;;;;;;;1.93;96.00;100773.58;1614815;88;21198;-89
2021/01/09 06:21:59;;;;;;;38.75;15.60;;;;;;;1.93;95.77;100769.59;1614843;88;21191;-88
2021/01/09 06:24:25;;;;;;;44.25;17.50;;;;;;;1.90;95.73;100764.16;1614897;88;21227;-89
2021/01/09 06:26:51;;;;;;;44.33;16.20;;;;;;;1.95;95.66;100763.07;1614713;88;21235;-89
2021/01/09 06:29:27;;;;;;;40.33;16.50;;;;;;;1.92;95.66;100769.30;1613799;87;21643;-89
2021/01/09 06:31:56;;;;;;;43.52;16.55;;;;;;;1.94;95.58;100767.23;1541593;93;21237;-89
2021/01/09 06:34:28;;;;;;;39.83;15.95;;;;;;;1.97;95.58;100784.11;1541900;93;21260;-90
2021/01/09 06:37:00;;;;;;;43.17;16.02;;;;;;;1.97;95.52;100796.07;1541970;93;21220;-88
2021/01/09 06:39:30;;;;;;;41.83;15.88;;;;;;;1.93;95.55;100805.47;1510684;95;21441;-87
2021/01/09 06:41:59;;;;;;;42.17;15.78;;;;;;;1.98;95.54;100817.16;1457024;98;21727;-88
2021/01/09 06:44:26;;;;;;;41.77;15.95;;;;;;;1.99;95.40;100800.69;1456985;98;21180;-88
2021/01/09 06:46:54;;;;;;;44.03;16.52;;;;;;;1.89;95.62;100782.47;1456852;98;21746;-88
2021/01/09 06:49:22;;;;;;;48.80;17.55;;;;;;;1.93;95.71;100774.91;1457049;98;21755;-87
2021/01/09 06:51:57;;;;;;;42.20;16.17;;;;;;;2.00;95.70;100781.06;1457026;98;22431;-87
2021/01/09 06:54:45;;;;;;;43.17;16.30;;;;;;;2.02;95.58;100790.48;1456945;98;21335;-87
2021/01/09 06:57:21;;;;;;;41.58;15.60;;;;;;;2.07;95.72;100805.03;1456992;98;21258;-87
2021/01/09 06:59:51;;;;;;;42.80;16.70;;;;;;;2.08;95.41;100807.47;1437200;99;21674;-87
2021/01/09 07:02:22;;;;;;;42.80;17.00;;;;;;;2.05;95.21;100810.53;1437244;99;21126;-87
2021/01/09 07:05:09;;;;;;;47.60;17.67;;;;;;;2.03;95.22;100796.64;1437352;99;21334;-87
2021/01/09 07:07:54;;;;;;;44.80;17.45;;;;;;;2.01;95.60;100793.35;1437281;99;21215;-87
2021/01/09 07:10:28;;;;;;;51.42;18.42;;;;;;;2.07;95.58;100793.06;1468745;96;21307;-88
2021/01/09 07:12:58;;;;;;;47.75;17.82;;;;;;;2.08;95.48;100805.33;1457131;98;21234;-87
2021/01/09 07:15:26;;;;;;;49.77;17.95;;;;;;;2.12;95.30;100795.44;1435500;99;21247;-88
2021/01/09 07:18:00;;;;;;;47.10;17.48;;;;;;;2.07;95.53;100804.52;1418543;99;21479;-87
2021/01/09 07:20:31;;;;;;;45.75;17.20;;;;;;;2.15;95.58;100805.67;1435536;99;21338;-87
2021/01/09 07:23:01;;;;;;;50.05;18.30;;;;;;;2.20;95.58;100799.74;1416761;101;21338;-87
2021/01/09 07:25:40;;;;;;;46.08;18.37;;;;;;;2.16;95.66;100801.98;1419273;99;21377;-88
2021/01/09 07:28:22;;;;;;;51.70;18.20;;;;;;;2.16;95.45;100795.86;1417101;100;21230;-87
2021/01/09 07:31:04;;;;;;;51.70;18.35;;;;;;;2.19;95.65;100804.25;1409007;100;22154;-87
2021/01/09 07:33:32;;;;;;;50.17;18.62;;;;;;;2.10;95.44;100786.84;1408529;101;21295;-87
2021/01/09 07:36:00;;;;;;;45.95;18.60;;;;;;;2.24;95.55;100791.18;1421347;99;21282;-86
2021/01/09 07:38:26;;;;;;;45.23;17.67;;;;;;;2.29;95.61;100786.58;1457416;96;21227;-86
2021/01/09 07:40:58;;;;;;;55.67;19.55;;;;;;;2.36;95.47;100784.77;1482590;96;21577;-87
2021/01/09 07:43:43;;;;;;;49.95;18.80;;;;;;;2.45;95.49;100779.57;1482786;96;21475;-86
2021/01/09 07:46:29;;;;;;;47.25;18.57;;;;;;;2.47;94.94;100780.20;1482505;96;21831;-87
2021/01/09 07:48:59;;;;;;;49.98;18.50;;;;;;;2.56;94.86;100779.50;1453194;97;21255;-88
2021/01/09 07:51:54;;;;;;;48.60;18.87;;;;;;;2.55;94.71;100784.48;1453138;98;21695;-87
2021/01/09 07:54:44;;;;;;;43.85;17.67;;;;;;;2.64;94.81;100793.91;1453176;97;21111;-87
2021/01/09 07:57:27;;;;;;;45.52;17.77;;;;;;;2.63;94.38;100790.14;1471761;96;21280;-87
2021/01/09 08:00:01;;;;;;;50.73;18.82;;;;;;;2.63;94.22;100791.47;1481179;95;21285;-87
2021/01/09 08:02:30;;;;;;;;;;;;;;;2.64;94.06;100796.58;1483382;95;21400;-87
2021/01/09 08:05:15;;;;;;;48.55;18.05;;;;;;;2.52;93.66;100788.89;1481065;96;20269;-86
2021/01/09 08:07:46;;;;;;;46.85;17.95;;;;;;;2.69;94.34;100780.02;1473709;96;21289;-86
2021/01/09 08:10:20;;;;;;;48.00;18.70;;;;;;;2.60;94.06;100784.71;1405165;100;21395;-86
2021/01/09 08:12:53;;;;;;;44.23;18.10;;;;;;;2.76;94.75;100786.15;1420197;100;21185;-86
2021/01/09 08:15:19;;;;;;;;;;;;;;;2.86;94.64;100781.26;1414164;101;21217;-86
2021/01/09 08:17:45;;;;;;;45.52;17.73;;;;;;;2.95;93.95;100784.02;1413903;101;20272;-86
2021/01/09 08:20:13;;;;;;;45.67;17.73;;;;;;;3.09;93.60;100774.20;1413584;101;21225;-87
2021/01/09 08:22:59;;;;;;;46.20;17.17;;;;;;;3.31;93.80;100772.63;1413851;101;21280;-87
2021/01/09 08:25:29;;;;;;;43.90;16.70;;;;;;;3.38;93.20;100777.42;1376619;102;21279;-87
2021/01/09 08:27:58;;;;;;;43.40;17.10;;;;;;;3.48;92.56;100784.48;1389831;103;21734;-87
2021/01/09 08:30:27;;;;;;;45.55;17.65;;;;;;;3.48;90.77;100782.34;1388482;101;21270;-87
2021/01/09 08:33:04;;;;;;;45.05;17.25;;;;;;;3.54;91.07;100792.16;1386454;102;21326;-87
2021/01/09 08:35:30;;;;;;;41.28;17.07;;;;;;;3.49;90.74;100795.44;1348377;106;21293;-87
2021/01/09 08:37:58;;;;;;;44.03;16.90;;;;;;;3.49;89.75;100799.43;1348273;105;21787;-86
2021/01/09 08:40:25;;;;;;;49.63;18.48;;;;;;;3.61;91.33;100794.28;1348416;106;21290;-86
2021/01/09 08:43:00;;;;;;;45.65;17.12;;;;;;;3.61;91.32;100787.10;1348336;106;21691;-87
2021/01/09 08:45:48;;;;;;;46.83;17.55;;;;;;;3.72;91.61;100780.31;1350916;105;22243;-87
2021/01/09 08:48:35;;;;;;;41.70;17.20;;;;;;;3.95;91.41;100773.16;1357407;103;21333;-87
2021/01/09 08:51:09;;;;;;;44.18;17.37;;;;;;;4.29;91.55;100779.14;1368583;103;21738;-86
2021/01/09 08:54:06;;;;;;;44.95;17.55;;;;;;;4.28;88.39;100781.52;1349938;103;21183;-86
2021/01/09 08:56:34;;;;;;;43.17;16.70;;;;;;;4.49;89.63;100777.18;1312608;106;21899;-86
2021/01/09 08:59:03;;;;;;;44.65;17.45;;;;;;;4.63;87.84;100780.59;1327161;106;21203;-86
2021/01/09 09:01:43;;;;;;;41.90;17.50;;;;;;;4.71;88.67;100772.33;1327193;106;21438;-86
2021/01/09 09:04:11;;;;;;;44.08;17.05;;;;;;;4.65;87.51;100767.04;1329065;106;21832;-87
2021/01/09 09:06:38;;;;;;;39.98;16.27;;;;;;;4.98;87.33;100766.25;1340587;104;21773;-86
2021/01/09 09:09:05;;;;;;;44.05;17.35;;;;;;;5.31;88.58;100762.45;1357746;104;21317;-88
2021/01/09 09:11:32;;;;;;;41.92;16.80;;;;;;;5.55;89.99;100765.30;1357750;105;21254;-86
2021/01/09 09:14:10;;;;;;;48.33;17.73;;;;;;;5.64;87.58;100759.42;1417644;100;21237;-86
2021/01/09 09:16:38;;;;;;;44.40;17.27;;;;;;;5.59;86.14;100755.78;1396389;102;21239;-86
2021/01/09 09:19:16;;;;;;;43.48;17.20;;;;;;;5.73;86.26;100753.78;1396522;102;21260;-91
2021/01/09 09:21:47;;;;;;;44.55;17.12;;;;;;;5.66;84.31;100742.65;1463789;95;21205;-87
2021/01/09 09:24:15;;;;;;;50.75;18.55;;;;;;;5.76;85.76;100741.30;1520533;92;21152;-87
2021/01/09 09:26:42;;;;;;;45.85;18.02;;;;;;;5.85;85.93;100747.48;1556856;90;21318;-88
2021/01/09 09:29:09;;;;;;;49.27;18.00;;;;;;;5.73;84.36;100747.10;1556793;92;21283;-87
2021/01/09 09:31:42;;;;;;;47.43;17.90;;;;;;;5.82;84.34;100745.23;1566580;89;21230;-87
2021/01/09 09:34:12;;;;;;;47.23;17.98;;;;;;;5.99;85.46;100747.33;1549712;91;21600;-87
2021/01/09 09:36:58;;;;;;;43.78;17.82;;;;;;;6.10;85.03;100750.59;1570143;91;21678;-87
2021/01/09 09:39:25;;;;;;;41.98;16.73;;;;;;;6.36;85.41;100750.75;1570010;89;21447;-87
2021/01/09 09:42:01;;;;;;;43.08;17.57;;;;;;;6.05;82.47;100758.47;1569923;91;21214;-87
2021/01/09 09:44:39;;;;;;;45.75;17.73;;;;;;;6.07;83.46;100766.56;1497533;94;21306;-87
2021/01/09 09:47:27;;;;;;;44.88;18.57;;;;;;;6.06;83.81;100755.58;1497433;94;21300;-87
2021/01/09 09:49:58;;;;;;;57.40;22.67;;;;;;;6.08;83.58;100760.16;1474582;96;21197;-88
2021/01/09 09:52:25;;;;;;;56.23;21.68;;;;;;;5.59;79.00;100753.95;1467011;97;21310;-87
2021/01/09 09:55:03;;;;;;;52.58;20.80;;;;;;;5.54;81.77;100751.65;1469145;96;21239;-87
2021/01/09 09:57:29;;;;;;;50.10;19.32;;;;;;;5.59;82.64;100755.29;1426680;100;21241;-87
2021/01/09 10:00:11;;;;;;;51.18;19.98;;;;;;;5.51;83.03;100752.91;1406526;100;21083;-89
2021/01/09 10:02:40;;;;;;;46.35;18.60;;;;;;;5.14;81.62;100758.72;1384254;102;21783;-88
2021/01/09 10:05:13;;;;;;;51.70;19.45;;;;;;;5.03;83.02;100748.25;1380567;103;21277;-88
2021/01/09 10:07:39;;;;;;;49.77;19.02;;;;;;;4.93;82.42;100752.73;1365203;105;21371;-88
2021/01/09 10:10:20;;;;;;;48.87;19.02;;;;;;;4.98;82.52;100747.56;1347720;105;21273;-87
2021/01/09 10:12:56;;;;;;;51.73;19.15;;;;;;;4.65;82.47;100750.50;1365106;105;21118;-88
2021/01/09 10:15:23;;;;;;;48.80;18.82;;;;;;;4.87;83.48;100749.60;1347857;105;21675;-88
2021/01/09 10:17:52;;;;;;;55.15;19.87;;;;;;;4.96;83.35;100750.95;1365269;105;21254;-88
2021/01/09 10:20:18;;;;;;;53.95;20.45;;;;;;;4.83;83.15;100745.74;1346864;105;21699;-88
2021/01/09 10:22:44;;;;;;;54.53;20.97;;;;;;;4.65;81.90;100745.69;1347047;106;21181;-88
2021/01/09 10:25:10;;;;;;;54.05;20.80;;;;;;;4.87;83.92;100746.12;1333586;105;21337;-89
2021/01/09 10:27:36;;;;;;;52.45;19.95;;;;;;;5.03;84.42;100752.26;1357475;105;21306;-89
2021/01/09 10:30:04;;;;;;;54.18;20.50;;;;;;;5.08;83.80;100743.05;1387077;102;22016;-88
2021/01/09 10:32:30;;;;;;;55.35;20.08;;;;;;;5.15;83.61;100742.48;1366870;104;21325;-88
2021/01/09 10:34:56;;;;;;;55.92;21.25;;;;;;;5.08;82.98;100746.23;1370286;104;21071;-89
2021/01/09 10:37:22;;;;;;;53.48;19.85;;;;;;;4.91;82.49;100744.14;1421244;100;21088;-89
2021/01/09 10:39:48;;;;;;;50.52;21.23;;;;;;;4.95;83.21;100747.19;1466293;96;21227;-89
2021/01/09 10:42:14;;;;;;;55.67;21.07;;;;;;;4.84;83.19;100743.36;1455293;97;21166;-89
2021/01/09 10:44:41;;;;;;;56.90;20.75;;;;;;;4.87;83.57;100740.25;1457175;97;21129;-88
2021/01/09 10:47:07;;;;;;;61.50;21.42;;;;;;;4.98;84.21;100746.22;1474025;95;21287;-88
2021/01/09 10:49:33;;;;;;;54.45;20.90;;;;;;;4.78;83.91;100750.39;1510816;95;21303;-89
2021/01/09 10:51:59;;;;;;;52.62;20.68;;;;;;;4.69;83.12;100750.36;1510790;95;21933;-89
2021/01/09 10:54:25;;;;;;;53.20;20.48;;;;;;;4.65;82.25;100747.02;1548501;90;21852;-89
2021/01/09 10:56:52;;;;;;;44.55;17.87;;;;;;;4.37;82.91;100754.89;1586640;90;21198;-90
2021/01/09 10:59:18;;;;;;;50.08;18.62;;;;;;;4.20;82.21;100759.09;1580294;89;21099;-90
2021/01/09 11:01:44;;;;;;;53.20;19.77;;;;;;;4.30;81.19;100760.27;1558253;89;21251;-90
2021/01/09 11:04:10;;;;;;;51.65;19.60;;;;;;;4.29;83.40;100761.31;1579562;89;21052;-91
2021/01/09 11:06:36;;;;;;;48.00;18.57;;;;;;;4.49;83.88;100759.02;1574089;89;21684;-91
2021/01/09 11:09:03;;;;;;;54.40;18.75;;;;;;;4.45;83.80;100764.50;1576926;90;21095;-90
2021/01/09 11:11:29;;;;;;;49.58;19.20;;;;;;;4.01;82.83;100769.65;1597886;88;21665;-91
2021/01/09 11:13:54;;;;;;;47.58;18.80;;;;;;;4.30;83.66;100764.27;1591938;88;21070;-90
2021/01/09 11:16:22;;;;;;;45.65;18.05;;;;;;;4.17;84.02;100773.66;1597825;86;20958;-90
2021/01/09 11:18:49;;;;;;;51.80;19.32;;;;;;;4.09;84.03;100777.94;1662591;85;21467;-90
2021/01/09 11:21:16;;;;;;;55.40;20.05;;;;;;;4.17;84.50;100783.00;1651448;85;21275;-90
2021/01/09 11:23:43;;;;;;;49.58;19.62;;;;;;;3.92;83.84;100788.25;1644933;85;21204;-90
2021/01/09 11:26:13;;;;;;;55.88;21.45;;;;;;;3.79;84.27;100789.62;1662405;85;21172;-90